createdAt,value
2018-06-07T00:01:34.603Z,68.50
2018-06-07T00:04:05.284Z,68.90
2018-06-07T00:06:34.118Z,69.60
2018-06-07T00:09:02.915Z,70.30
2018-06-07T00:11:31.992Z,70.80
2018-06-07T00:14:01.180Z,71.40
2018-06-07T00:16:29.618Z,72.20
2018-06-07T00:18:58.854Z,72.80
2018-06-07T00:21:27.679Z,73.40
2018-06-07T00:23:56.672Z,74.00
2018-06-07T00:26:25.480Z,74.60
2018-06-07T00:28:53.895Z,75.10
2018-06-07T00:31:22.346Z,76.30
2018-06-07T00:33:51.163Z,75.60
2018-06-07T00:36:19.559Z,76.10
2018-06-07T00:38:48.004Z,76.60
2018-06-07T00:41:16.506Z,77.00
2018-06-07T00:43:46.215Z,78.00
2018-06-07T00:46:15.054Z,78.70
2018-06-07T00:48:43.902Z,79.00
2018-06-07T00:51:12.353Z,79.60
2018-06-07T00:53:40.972Z,80.10
2018-06-07T00:56:10.957Z,80.20
2018-06-07T00:58:39.537Z,80.90
2018-06-07T01:01:08.082Z,81.20
2018-06-07T01:03:36.512Z,81.70
2018-06-07T01:06:06.231Z,82.00
2018-06-07T01:08:35.168Z,82.10
2018-06-07T01:11:03.604Z,82.00
2018-06-07T01:13:32.068Z,82.10
2018-06-07T01:16:01.119Z,82.40
2018-06-07T01:18:30.331Z,82.40
2018-06-07T01:20:59.545Z,82.80
2018-06-07T01:23:28.716Z,83.20
2018-06-07T01:25:58.013Z,83.80
2018-06-07T01:28:26.832Z,84.30
2018-06-07T01:31:00.820Z,84.60
2018-06-07T01:46:29.687Z,84.90
2018-06-07T01:51:33.378Z,88.10
2018-06-07T01:54:03.290Z,87.60
2018-06-07T01:56:32.046Z,88.00
2018-06-07T01:59:01.104Z,87.90
2018-06-07T02:01:29.663Z,87.90
2018-06-07T02:03:58.201Z,87.10
2018-06-07T02:06:27.334Z,87.50
2018-06-07T02:08:56.111Z,87.70
2018-06-07T02:11:24.910Z,87.70
2018-06-07T02:13:53.541Z,87.70
2018-06-07T02:16:23.353Z,88.00
2018-06-07T02:18:53.164Z,88.20
2018-06-07T02:21:21.953Z,88.30
2018-06-07T02:23:50.376Z,88.80
2018-06-07T02:26:18.785Z,89.30
2018-06-07T02:28:47.601Z,89.20
2018-06-07T02:31:16.014Z,88.80
2018-06-07T02:33:45.173Z,89.40
2018-06-07T02:36:13.995Z,90.10
2018-06-07T02:38:42.766Z,90.30
2018-06-07T02:41:11.209Z,90.60
2018-06-07T02:43:40.014Z,90.50
2018-06-07T02:46:09.272Z,90.80
2018-06-07T02:48:38.033Z,90.60
2018-06-07T02:51:07.737Z,90.50
2018-06-07T02:53:36.533Z,90.10
2018-06-07T02:56:05.038Z,89.20
2018-06-07T02:58:34.295Z,88.20
2018-06-07T03:01:03.533Z,87.50
2018-06-07T03:03:32.025Z,87.20
2018-06-07T03:06:01.313Z,87.10
2018-06-07T03:08:30.825Z,87.20
2018-06-07T03:10:59.329Z,87.70
2018-06-07T03:13:27.857Z,87.40
2018-06-07T03:15:56.534Z,87.30
2018-06-07T03:18:25.049Z,87.50
2018-06-07T03:20:54.205Z,88.20
2018-06-07T03:23:23.517Z,87.70
2018-06-07T03:25:52.604Z,88.00
2018-06-07T03:28:21.124Z,87.90
2018-06-07T03:30:50.377Z,87.90
2018-06-07T03:35:47.435Z,87.50
2018-06-07T03:38:16.510Z,86.90
2018-06-07T03:40:45.568Z,87.10
2018-06-07T03:43:14.099Z,87.10
2018-06-07T03:45:43.300Z,86.40
2018-06-07T03:48:12.586Z,86.50
2018-06-07T03:50:41.862Z,87.40
2018-06-07T03:53:11.209Z,87.30
2018-06-07T03:55:40.407Z,87.30
2018-06-07T03:58:13.032Z,88.30
2018-06-07T04:00:41.579Z,87.90
2018-06-07T04:03:10.493Z,87.80
2018-06-07T04:05:39.285Z,87.00
2018-06-07T04:08:07.817Z,86.30
2018-06-07T04:10:36.583Z,85.80
2018-06-07T04:13:05.758Z,85.80
2018-06-07T04:15:34.465Z,85.40
2018-06-07T04:18:02.927Z,86.20
2018-06-07T04:20:31.915Z,86.30
2018-06-07T04:23:00.438Z,86.80
2018-06-07T04:25:29.149Z,86.50
2018-06-07T04:27:57.582Z,86.70
2018-06-07T04:30:27.385Z,86.30
2018-06-07T04:32:56.347Z,85.50
2018-06-07T04:35:25.230Z,84.50
2018-06-07T04:37:55.102Z,82.60
2018-06-07T04:40:24.095Z,80.90
2018-06-07T04:42:52.929Z,79.80
2018-06-07T04:45:21.708Z,79.10
2018-06-07T04:47:50.494Z,77.00
2018-06-07T04:50:18.939Z,75.50
2018-06-07T04:52:47.357Z,72.00
2018-06-07T04:55:16.130Z,66.70
2018-06-07T04:57:44.859Z,62.60
2018-06-07T05:00:15.405Z,59.50
2018-06-07T05:02:43.852Z,57.50
2018-06-07T05:05:12.311Z,56.30
2018-06-07T05:07:40.725Z,54.30
2018-06-07T05:10:09.628Z,53.60
2018-06-07T05:12:38.030Z,52.10
2018-06-07T05:15:06.540Z,50.60
2018-06-07T05:17:41.654Z,49.00
2018-06-07T05:20:10.536Z,47.80
2018-06-07T05:22:39.794Z,47.00
2018-06-07T05:25:08.320Z,46.10
2018-06-07T05:27:37.135Z,45.80
2018-06-07T05:30:06.057Z,45.20
2018-06-07T05:32:34.569Z,45.10
2018-06-07T05:35:03.428Z,45.40
2018-06-07T05:37:32.603Z,46.30
2018-06-07T05:40:02.025Z,47.40
2018-06-07T05:42:30.920Z,47.80
2018-06-07T05:44:59.360Z,47.90
2018-06-07T05:47:27.810Z,47.30
2018-06-07T05:49:56.233Z,46.90
2018-06-07T05:52:24.978Z,46.30
2018-06-07T05:54:53.417Z,45.60
2018-06-07T05:57:22.533Z,45.30
2018-06-07T05:59:52.035Z,45.50
2018-06-07T06:02:20.823Z,45.80
2018-06-07T06:04:50.297Z,45.90
2018-06-07T06:07:18.761Z,46.10
2018-06-07T06:09:47.898Z,46.40
2018-06-07T06:12:16.391Z,46.60
2018-06-07T06:14:45.999Z,46.90
2018-06-07T06:30:14.925Z,46.90
2018-06-07T06:32:43.470Z,49.40
2018-06-07T06:35:12.806Z,49.60
2018-06-07T06:38:50.447Z,49.40
2018-06-07T06:41:18.925Z,48.50
2018-06-07T06:43:47.735Z,46.60
2018-06-07T06:46:16.169Z,44.80
2018-06-07T06:51:13.054Z,41.00
2018-06-07T06:56:12.374Z,37.50
2018-06-07T06:58:40.783Z,36.40
2018-06-07T07:01:09.320Z,35.50
2018-06-07T07:16:43.159Z,34.80
2018-06-07T07:19:12.848Z,32.30
2018-06-07T07:21:41.588Z,31.60
2018-06-07T07:24:10.661Z,31.00
2018-06-07T07:26:39.068Z,30.10
2018-06-07T07:29:08.728Z,29.70
2018-06-07T07:31:37.946Z,29.40
2018-06-07T07:34:07.401Z,29.60
2018-06-07T07:36:36.646Z,29.10
2018-06-07T07:39:07.264Z,29.70
2018-06-07T07:41:40.232Z,29.40
2018-06-07T07:44:09.553Z,29.30
2018-06-07T07:46:37.953Z,28.90
2018-06-07T07:49:06.440Z,28.50
2018-06-07T07:51:35.396Z,28.10
2018-06-07T07:54:04.068Z,28.30
2018-06-07T07:56:32.825Z,28.50
2018-06-07T07:59:01.522Z,28.70
2018-06-07T08:14:35.253Z,28.60
2018-06-07T08:17:03.706Z,28.50
2018-06-07T08:19:32.905Z,28.00
2018-06-07T08:22:02.254Z,27.80
2018-06-07T08:24:30.647Z,28.20
2018-06-07T08:26:59.469Z,29.30
2018-06-07T08:29:28.254Z,29.20
2018-06-07T08:31:56.802Z,28.60
2018-06-07T08:34:25.247Z,27.90
2018-06-07T08:36:54.038Z,27.30
2018-06-07T08:39:23.311Z,27.00
2018-06-07T08:41:51.705Z,26.70
2018-06-07T08:44:21.420Z,26.10
2018-06-07T08:46:50.246Z,26.20
2018-06-07T08:49:18.931Z,25.90
2018-06-07T08:51:48.235Z,25.80
2018-06-07T08:54:16.655Z,25.70
2018-06-07T08:56:45.188Z,26.50
2018-06-07T08:59:13.636Z,27.50
2018-06-07T09:01:42.202Z,27.10
2018-06-07T09:04:10.672Z,26.50
2018-06-07T09:06:40.223Z,26.70
2018-06-07T09:09:09.892Z,25.70
2018-06-07T09:11:38.672Z,25.70
2018-06-07T09:14:07.061Z,25.70
2018-06-07T09:19:04.876Z,25.40
2018-06-07T09:21:33.294Z,25.00
2018-06-07T09:24:01.759Z,24.60
2018-06-07T09:26:30.788Z,24.70
2018-06-07T09:31:27.369Z,24.10
2018-06-07T09:33:55.769Z,24.20
2018-06-07T09:36:24.341Z,24.10
2018-06-07T09:38:53.206Z,24.20
2018-06-07T09:41:21.618Z,24.00
2018-06-07T09:43:50.077Z,24.40
2018-06-07T09:46:18.791Z,24.40
2018-06-07T09:48:47.204Z,24.30
2018-06-07T09:53:44.899Z,26.10
2018-06-07T09:56:14.120Z,26.50
2018-06-07T09:58:42.898Z,26.00
2018-06-07T10:01:12.513Z,26.40
2018-06-07T10:03:42.432Z,26.70
2018-06-07T10:06:11.329Z,26.80
2018-06-07T10:08:40.430Z,26.90
2018-06-07T10:11:09.582Z,26.30
2018-06-07T10:13:38.401Z,26.00
2018-06-07T10:16:07.211Z,25.70
2018-06-07T10:18:35.694Z,25.20
2018-06-07T10:21:04.124Z,24.60
2018-06-07T10:23:33.980Z,23.90
2018-06-07T10:26:02.777Z,23.30
2018-06-07T10:28:31.260Z,23.00
2018-06-07T10:31:01.023Z,22.80
2018-06-07T10:33:30.451Z,23.30
2018-06-07T10:35:58.902Z,23.50
2018-06-07T10:38:27.661Z,23.60
2018-06-07T10:40:56.926Z,23.90
2018-06-07T10:43:26.192Z,24.10
2018-06-07T10:45:54.633Z,24.30
2018-06-07T10:48:23.042Z,25.30
2018-06-07T10:50:51.493Z,25.60
2018-06-07T10:53:20.375Z,25.70
2018-06-07T10:55:48.932Z,25.70
2018-06-07T10:58:18.014Z,26.10
2018-06-07T11:00:46.662Z,26.50
2018-06-07T11:03:15.132Z,26.90
2018-06-07T11:05:44.046Z,27.10
2018-06-07T11:08:16.925Z,27.60
2018-06-07T11:10:45.644Z,27.80
2018-06-07T11:13:14.036Z,28.10
2018-06-07T11:18:11.497Z,29.50
2018-06-07T11:20:39.954Z,29.90
2018-06-07T11:23:08.737Z,30.00
2018-06-07T11:25:37.607Z,30.40
2018-06-07T11:28:06.297Z,31.20
2018-06-07T11:30:35.259Z,31.60
2018-06-07T11:33:03.682Z,33.10
2018-06-07T11:35:32.459Z,34.70
2018-06-07T11:38:01.000Z,35.30
2018-06-07T11:40:30.498Z,36.90
2018-06-07T11:42:58.917Z,37.80
2018-06-07T11:45:27.385Z,37.40
2018-06-07T11:47:55.816Z,36.90
2018-06-07T11:50:24.313Z,36.80
2018-06-07T11:52:52.772Z,36.90
2018-06-07T11:55:21.210Z,36.90
2018-06-07T11:57:49.631Z,37.30
2018-06-07T12:00:18.353Z,37.40
2018-06-07T12:02:47.122Z,37.30
2018-06-07T12:05:15.585Z,37.80
2018-06-07T12:07:44.357Z,38.70
2018-06-07T12:10:13.800Z,39.10
2018-06-07T12:12:42.250Z,39.30
2018-06-07T12:15:10.803Z,39.60
2018-06-07T12:17:39.570Z,39.50
2018-06-07T12:20:08.054Z,39.00
2018-06-07T12:22:36.475Z,39.00
2018-06-07T12:25:05.904Z,39.50
2018-06-07T12:27:34.331Z,38.80
2018-06-07T12:30:02.926Z,38.30
2018-06-07T12:32:31.401Z,38.50
2018-06-07T12:35:00.270Z,38.40
2018-06-07T12:37:28.709Z,37.90
2018-06-07T12:39:57.642Z,38.00
2018-06-07T12:42:26.437Z,38.10
2018-06-07T12:44:55.004Z,38.00
2018-06-07T12:47:23.943Z,37.90
2018-06-07T12:49:52.601Z,38.10
2018-06-07T12:52:21.010Z,37.40
2018-06-07T12:54:49.501Z,37.50
2018-06-07T12:57:18.225Z,37.60
2018-06-07T12:59:46.730Z,37.80
2018-06-07T13:02:19.102Z,37.90
2018-06-07T13:04:47.534Z,38.00
2018-06-07T13:07:16.629Z,38.10
2018-06-07T13:09:45.040Z,39.10
2018-06-07T13:12:13.915Z,38.80
2018-06-07T13:14:42.722Z,38.70
2018-06-07T13:17:11.169Z,38.70
2018-06-07T13:19:40.244Z,39.00
2018-06-07T13:22:08.704Z,37.90
2018-06-07T13:24:37.149Z,38.70
2018-06-07T13:27:06.457Z,39.20
2018-06-07T13:29:35.465Z,39.40
2018-06-07T13:32:03.968Z,39.90
2018-06-07T13:34:36.505Z,39.60
2018-06-07T13:37:05.805Z,39.90
2018-06-07T13:39:34.245Z,39.50
2018-06-07T13:42:03.125Z,39.90
2018-06-07T13:44:31.576Z,39.90
2018-06-07T13:47:00.329Z,39.30
2018-06-07T13:49:30.117Z,39.30
2018-06-07T13:51:59.708Z,38.90
2018-06-07T13:54:28.926Z,38.90
2018-06-07T13:56:57.685Z,39.30
2018-06-07T13:59:26.180Z,39.60
2018-06-07T14:01:55.187Z,39.40
2018-06-07T14:04:24.107Z,37.80
2018-06-07T14:06:52.960Z,38.10
2018-06-07T14:09:21.437Z,39.00
2018-06-07T14:11:50.792Z,39.70
2018-06-07T14:14:19.804Z,39.40
2018-06-07T14:16:48.314Z,39.70
2018-06-07T14:19:17.261Z,39.70
2018-06-07T14:21:46.200Z,39.80
2018-06-07T14:24:14.996Z,40.10
2018-06-07T14:26:43.450Z,40.00
2018-06-07T14:29:12.013Z,39.10
2018-06-07T14:31:40.501Z,38.40
2018-06-07T14:34:09.002Z,39.20
2018-06-07T14:36:37.521Z,39.30
2018-06-07T14:39:07.558Z,39.70
2018-06-07T14:41:36.920Z,39.70
2018-06-07T14:44:05.694Z,39.80
2018-06-07T14:46:34.554Z,39.40
2018-06-07T14:49:03.182Z,39.00
2018-06-07T14:51:31.999Z,38.80
2018-06-07T14:54:00.412Z,38.40
2018-06-07T14:56:29.148Z,38.80
2018-06-07T14:58:57.557Z,37.10
2018-06-07T15:01:26.614Z,36.00
2018-06-07T15:03:55.106Z,36.50
2018-06-07T15:06:23.511Z,35.80
2018-06-07T15:08:51.979Z,35.40
2018-06-07T15:11:22.287Z,35.00
2018-06-07T15:13:50.834Z,35.80
2018-06-07T15:16:19.614Z,35.40
2018-06-07T15:18:48.589Z,35.80
2018-06-07T15:21:17.169Z,36.10
2018-06-07T15:23:45.853Z,37.00
2018-06-07T15:26:14.338Z,36.30
2018-06-07T15:28:43.018Z,36.40
2018-06-07T15:31:13.685Z,35.60
2018-06-07T15:33:42.131Z,35.70
2018-06-07T15:36:11.065Z,35.90
2018-06-07T15:38:39.731Z,34.80
2018-06-07T15:41:08.253Z,35.40
2018-06-07T15:43:36.963Z,35.60
2018-06-07T15:46:05.567Z,33.40
2018-06-07T15:48:34.357Z,33.50
2018-06-07T15:51:03.787Z,35.40
2018-06-07T15:53:33.377Z,36.50
2018-06-07T15:56:01.801Z,37.50
2018-06-07T15:58:30.256Z,38.10
2018-06-07T16:00:58.719Z,38.60
2018-06-07T16:03:27.556Z,39.30
2018-06-07T16:05:56.270Z,42.10
2018-06-07T16:08:24.748Z,57.00
2018-06-07T16:10:53.565Z,59.60
2018-06-07T16:13:22.033Z,67.80
2018-06-07T16:15:53.436Z,90.60
2018-06-07T16:18:21.875Z,90.90
2018-06-07T16:20:50.338Z,94.50
2018-06-07T16:23:19.248Z,96.80
2018-06-07T16:25:48.033Z,99.30
2018-06-07T16:28:16.861Z,99.90
2018-06-07T16:30:45.342Z,99.90
2018-06-07T16:33:13.830Z,99.90
2018-06-07T16:35:42.636Z,99.90
2018-06-07T16:38:11.973Z,99.90
2018-06-07T16:40:41.001Z,99.90
2018-06-07T16:43:09.516Z,99.90
2018-06-07T16:45:38.621Z,99.90
2018-06-07T16:48:07.392Z,99.90
2018-06-07T16:50:35.835Z,99.90
2018-06-07T16:53:04.813Z,99.90
2018-06-07T16:55:33.231Z,99.90
2018-06-07T16:58:02.290Z,99.90
2018-06-07T17:00:31.237Z,99.90
2018-06-07T17:03:00.778Z,99.90
2018-06-07T17:05:29.214Z,99.90
2018-06-07T17:07:57.691Z,99.90
2018-06-07T17:10:26.415Z,99.90
2018-06-07T17:12:55.002Z,99.90
2018-06-07T17:15:23.506Z,99.90
2018-06-07T17:17:51.975Z,99.90
2018-06-07T17:20:20.418Z,99.90
2018-06-07T17:22:50.286Z,99.90
2018-06-07T17:25:19.362Z,99.90
2018-06-07T17:27:48.213Z,99.90
2018-06-07T17:32:44.995Z,99.90
2018-06-07T17:35:13.670Z,99.90
2018-06-07T17:37:42.120Z,99.90
2018-06-07T17:40:11.054Z,99.90
2018-06-07T17:42:39.646Z,99.90
2018-06-07T17:45:08.191Z,99.90
2018-06-07T17:50:05.889Z,99.90
2018-06-07T17:52:34.563Z,99.90
2018-06-07T17:55:03.705Z,99.90
2018-06-07T17:57:32.623Z,99.90
2018-06-07T18:00:01.074Z,99.90
2018-06-07T18:02:29.800Z,99.90
2018-06-07T18:05:00.589Z,99.90
2018-06-07T18:07:29.446Z,99.90
2018-06-07T18:09:58.185Z,99.90
2018-06-07T18:12:27.133Z,99.90
2018-06-07T18:14:56.902Z,99.90
2018-06-07T18:17:26.465Z,99.90
2018-06-07T18:19:56.104Z,99.90
2018-06-07T18:22:25.729Z,99.90
2018-06-07T18:24:56.088Z,99.90
2018-06-07T18:27:24.893Z,99.90
2018-06-07T18:29:57.374Z,99.90
2018-06-07T18:32:26.283Z,99.90
2018-06-07T18:34:55.344Z,99.90
2018-06-07T18:37:24.442Z,99.90
2018-06-07T18:39:53.070Z,99.90
2018-06-07T18:42:22.062Z,99.90
2018-06-07T18:44:50.519Z,99.90
2018-06-07T18:47:18.974Z,99.90
2018-06-07T18:49:47.841Z,99.90
2018-06-07T18:52:17.241Z,99.90
2018-06-07T18:54:45.720Z,99.90
2018-06-07T18:57:15.163Z,99.90
2018-06-07T18:59:43.637Z,99.90
2018-06-07T19:02:12.386Z,99.90
2018-06-07T19:04:40.916Z,99.90
2018-06-07T19:07:13.921Z,99.90
2018-06-07T19:09:47.886Z,99.90
2018-06-07T19:12:16.309Z,99.90
2018-06-07T19:14:50.718Z,99.90
2018-06-07T19:17:19.187Z,99.90
2018-06-07T19:19:52.883Z,99.90
2018-06-07T19:22:21.377Z,99.90
2018-06-07T19:24:55.226Z,99.90
2018-06-07T19:27:25.154Z,99.90
2018-06-07T19:29:54.383Z,99.90
2018-06-07T19:32:28.745Z,99.90
2018-06-07T19:35:08.584Z,99.90
2018-06-07T19:37:37.521Z,99.90
2018-06-07T19:40:11.730Z,99.90
2018-06-07T19:42:40.775Z,99.90
2018-06-07T19:45:09.221Z,99.90
2018-06-07T19:47:37.912Z,99.90
2018-06-07T19:50:06.693Z,99.90
2018-06-07T19:52:36.130Z,99.90
2018-06-07T19:55:05.312Z,99.90
2018-06-07T19:57:34.633Z,99.90
2018-06-07T20:00:03.216Z,99.90
2018-06-07T20:02:32.049Z,99.90
2018-06-07T20:05:00.938Z,99.90
2018-06-07T20:07:29.522Z,99.90
2018-06-07T20:09:58.281Z,99.90
2018-06-07T20:12:26.874Z,99.90
2018-06-07T20:14:55.330Z,99.90
2018-06-07T20:17:24.535Z,99.90
2018-06-07T20:19:53.661Z,99.90
2018-06-07T20:22:22.093Z,99.90
2018-06-07T20:24:50.837Z,99.90
2018-06-07T20:27:19.997Z,99.90
2018-06-07T20:29:48.442Z,99.90
2018-06-07T20:32:16.901Z,99.90
2018-06-07T20:34:46.005Z,99.90
2018-06-07T20:37:14.663Z,99.90
2018-06-07T20:39:43.429Z,99.90
2018-06-07T20:42:11.845Z,99.90
2018-06-07T20:44:40.642Z,99.90
2018-06-07T20:47:09.109Z,99.90
2018-06-07T20:49:38.118Z,99.90
2018-06-07T20:52:06.851Z,99.90
2018-06-07T20:54:35.625Z,99.90
2018-06-07T20:57:04.525Z,99.90
2018-06-07T20:59:33.323Z,99.90
2018-06-07T21:02:01.915Z,99.90
2018-06-07T21:04:30.486Z,99.90
2018-06-07T21:06:59.336Z,99.90
2018-06-07T21:09:28.364Z,99.90
2018-06-07T21:11:56.892Z,99.90
2018-06-07T21:14:25.494Z,99.90
2018-06-07T21:16:53.997Z,99.90
2018-06-07T21:29:07.566Z,99.90
2018-06-07T21:31:36.392Z,99.90
2018-06-07T21:34:04.927Z,99.90
2018-06-07T21:36:33.983Z,99.90
2018-06-07T21:39:02.840Z,99.90
2018-06-07T21:41:32.112Z,99.90
2018-06-07T21:44:01.430Z,99.90
2018-06-07T21:46:30.164Z,99.90
2018-06-07T21:48:58.640Z,99.90
2018-06-07T21:51:27.156Z,99.90
2018-06-07T21:53:56.307Z,99.90
2018-06-07T21:56:24.844Z,99.90
2018-06-07T21:58:53.281Z,99.90
2018-06-07T22:01:23.237Z,99.90
2018-06-07T22:03:52.361Z,99.90
2018-06-07T22:06:20.840Z,99.90
2018-06-07T22:08:49.587Z,99.90
2018-06-07T22:11:18.105Z,99.90
2018-06-07T22:13:46.573Z,99.90
2018-06-07T22:16:14.976Z,99.90
2018-06-07T22:18:44.375Z,99.90
2018-06-07T22:21:12.824Z,99.90
2018-06-07T22:23:41.324Z,99.90
2018-06-07T22:26:10.265Z,99.90
2018-06-07T22:28:38.685Z,99.90
2018-06-07T22:31:07.399Z,99.90
2018-06-07T22:33:35.840Z,99.90
2018-06-07T22:36:04.293Z,99.90
2018-06-07T22:38:33.725Z,99.90
2018-06-07T22:41:02.124Z,99.90
2018-06-07T22:43:30.840Z,99.90
2018-06-07T22:45:59.235Z,99.90
2018-06-07T22:48:28.380Z,99.90
2018-06-07T22:50:56.963Z,99.90
2018-06-07T22:53:26.322Z,99.90
2018-06-07T22:55:55.045Z,99.90
2018-06-07T22:58:23.813Z,99.90
2018-06-07T23:00:53.121Z,99.90
2018-06-07T23:03:21.576Z,99.90
2018-06-07T23:05:50.030Z,99.90
2018-06-07T23:08:18.781Z,99.90
2018-06-07T23:10:47.235Z,99.90
2018-06-07T23:13:16.013Z,99.90
2018-06-07T23:28:45.374Z,99.90
2018-06-07T23:31:13.909Z,99.90
2018-06-07T23:33:42.317Z,99.90
2018-06-07T23:36:10.897Z,99.90
2018-06-07T23:38:39.319Z,99.90
2018-06-07T23:41:07.801Z,99.90
2018-06-07T23:43:36.554Z,99.90
2018-06-07T23:46:06.245Z,99.90
2018-06-07T23:48:35.081Z,99.90
2018-06-07T23:51:03.940Z,99.90
2018-06-07T23:53:32.688Z,99.90
2018-06-07T23:56:01.426Z,99.90
2018-06-07T23:58:30.162Z,99.90
